createdAt,value
2022-11-29T00:01:38.194Z,14.02
2022-11-29T00:04:07.736Z,14.25
2022-11-29T00:06:37.463Z,16.35
2022-11-29T00:09:11.434Z,16.67
2022-11-29T00:11:58.108Z,11.65
2022-11-29T00:14:26.518Z,18.65
2022-11-29T00:16:55.675Z,13.77
2022-11-29T00:19:22.884Z,14.57
2022-11-29T00:21:49.643Z,14.43
2022-11-29T00:24:16.539Z,14.48
2022-11-29T00:26:43.262Z,17.13
2022-11-29T00:29:13.568Z,19.40
2022-11-29T00:31:41.009Z,13.98
2022-11-29T00:34:09.552Z,13.63
2022-11-29T00:36:36.472Z,12.90
2022-11-29T00:39:05.264Z,15.73
2022-11-29T00:41:32.346Z,14.48
2022-11-29T00:43:59.150Z,17.08
2022-11-29T00:46:28.098Z,13.88
2022-11-29T00:48:54.972Z,14.05
2022-11-29T00:51:21.702Z,16.13
2022-11-29T00:53:48.794Z,12.75
2022-11-29T00:56:16.241Z,14.05
2022-11-29T00:58:45.439Z,16.48
2022-11-29T01:01:12.185Z,17.80
2022-11-29T01:03:41.360Z,16.75
2022-11-29T01:06:14.278Z,15.77
2022-11-29T01:08:46.220Z,13.02
2022-11-29T01:11:19.882Z,19.38
2022-11-29T01:13:49.447Z,15.18
2022-11-29T01:16:17.448Z,18.73
2022-11-29T01:18:46.521Z,14.63
2022-11-29T01:21:18.378Z,15.55
2022-11-29T01:23:46.083Z,15.10
2022-11-29T01:26:18.319Z,19.83
2022-11-29T01:28:51.377Z,19.80
2022-11-29T01:31:24.285Z,19.52
2022-11-29T01:33:59.289Z,19.77
2022-11-29T01:36:27.030Z,20.20
2022-11-29T01:38:53.793Z,21.73
2022-11-29T01:41:25.177Z,15.40
2022-11-29T01:44:26.891Z,17.05
2022-11-29T01:46:58.713Z,23.88
2022-11-29T01:49:36.827Z,17.35
2022-11-29T01:52:11.614Z,18.60
2022-11-29T01:54:45.936Z,17.17
2022-11-29T01:57:13.450Z,19.42
2022-11-29T01:59:46.628Z,17.17
2022-11-29T02:02:16.188Z,19.05
2022-11-29T02:04:45.806Z,20.83
2022-11-29T02:07:12.881Z,18.10
2022-11-29T02:09:44.300Z,19.65
2022-11-29T02:12:28.997Z,20.08
2022-11-29T02:15:03.449Z,15.63
2022-11-29T02:18:02.370Z,17.13
2022-11-29T02:20:29.029Z,16.92
2022-11-29T02:23:17.164Z,19.85
2022-11-29T02:26:22.960Z,15.52
2022-11-29T02:29:14.635Z,18.90
2022-11-29T02:31:59.951Z,20.52
2022-11-29T02:34:57.777Z,22.45
2022-11-29T02:37:39.951Z,18.88
2022-11-29T02:40:28.483Z,18.85
2022-11-29T02:43:07.219Z,20.27
2022-11-29T02:46:16.438Z,21.00
2022-11-29T02:48:55.703Z,24.25
2022-11-29T02:51:45.591Z,22.17
2022-11-29T02:54:37.287Z,20.65
2022-11-29T02:57:29.461Z,28.60
2022-11-29T03:00:05.125Z,21.27
2022-11-29T03:05:39.289Z,23.85
2022-11-29T03:08:31.894Z,23.88
2022-11-29T03:11:16.115Z,22.35
2022-11-29T03:13:52.487Z,26.65
2022-11-29T03:16:43.636Z,23.00
2022-11-29T03:19:40.854Z,29.95
2022-11-29T03:22:26.571Z,26.70
2022-11-29T03:25:02.159Z,28.13
2022-11-29T03:30:08.145Z,26.52
2022-11-29T03:32:50.087Z,33.08
2022-11-29T03:35:43.503Z,33.90
2022-11-29T03:38:24.729Z,37.20
2022-11-29T03:41:10.108Z,37.25
2022-11-29T03:43:50.496Z,33.60
2022-11-29T03:46:35.787Z,31.88
2022-11-29T03:49:11.833Z,33.33
2022-11-29T03:52:12.761Z,31.23
2022-11-29T03:55:19.754Z,36.05
2022-11-29T04:00:14.233Z,27.15
2022-11-29T04:02:58.085Z,33.63
2022-11-29T04:05:45.616Z,38.00
2022-11-29T04:08:43.371Z,43.55
2022-11-29T04:11:09.972Z,41.97
2022-11-29T04:14:03.984Z,39.35
2022-11-29T04:16:47.827Z,39.40
2022-11-29T04:20:11.355Z,40.38
2022-11-29T04:23:08.194Z,44.05
2022-11-29T04:26:08.423Z,40.50
2022-11-29T04:28:52.480Z,53.20
2022-11-29T04:31:28.100Z,51.30
2022-11-29T04:37:14.699Z,49.80
2022-11-29T04:40:06.055Z,50.75
2022-11-29T04:42:45.055Z,54.28
2022-11-29T04:45:25.868Z,71.38
2022-11-29T04:48:17.158Z,67.88
2022-11-29T04:51:17.758Z,67.63
2022-11-29T04:54:03.410Z,66.55
2022-11-29T04:56:40.418Z,81.20
2022-11-29T04:59:40.904Z,69.93
2022-11-29T05:02:32.708Z,75.95
2022-11-29T05:05:17.810Z,72.88
2022-11-29T05:08:29.111Z,87.28
2022-11-29T05:11:26.526Z,62.22
2022-11-29T05:14:14.608Z,71.18
2022-11-29T05:16:48.996Z,75.68
2022-11-29T05:19:43.134Z,81.15
2022-11-29T05:22:40.672Z,80.32
2022-11-29T05:25:45.340Z,84.78
2022-11-29T05:28:30.776Z,88.80
2022-11-29T05:31:19.491Z,91.72
2022-11-29T05:34:17.113Z,94.13
2022-11-29T05:36:48.939Z,92.15
2022-11-29T05:39:39.957Z,89.15
2022-11-29T05:42:37.104Z,99.07
2022-11-29T05:45:20.326Z,92.82
2022-11-29T05:47:54.018Z,92.55
2022-11-29T05:50:30.650Z,98.38
2022-11-29T05:53:04.067Z,96.53
2022-11-29T05:55:47.654Z,93.07
2022-11-29T05:58:42.798Z,103.43
2022-11-29T06:01:33.735Z,109.22
2022-11-29T06:04:14.589Z,108.53
2022-11-29T06:07:03.645Z,107.82
2022-11-29T06:09:37.615Z,112.22
2022-11-29T06:12:14.862Z,118.28
2022-11-29T06:14:57.013Z,126.43
2022-11-29T06:17:41.701Z,129.07
2022-11-29T06:20:34.383Z,132.48
2022-11-29T06:23:07.292Z,135.43
2022-11-29T06:26:11.609Z,142.25
2022-11-29T06:28:48.266Z,152.23
2022-11-29T06:31:26.540Z,150.15
2022-11-29T06:34:19.194Z,152.52
2022-11-29T06:36:55.630Z,158.55
2022-11-29T06:39:25.095Z,150.43
2022-11-29T06:41:51.788Z,170.20
2022-11-29T06:44:18.863Z,179.77
2022-11-29T06:47:24.103Z,173.30
2022-11-29T06:50:05.396Z,164.52
2022-11-29T06:52:43.853Z,138.05
2022-11-29T06:55:44.804Z,154.48
2022-11-29T06:58:36.171Z,155.75
2022-11-29T07:01:22.025Z,143.95
2022-11-29T07:03:58.180Z,150.25
2022-11-29T07:06:27.630Z,147.40
2022-11-29T07:09:04.180Z,160.68
2022-11-29T07:11:31.261Z,139.77
2022-11-29T07:13:58.280Z,132.13
2022-11-29T07:16:40.088Z,135.25
2022-11-29T07:19:19.325Z,126.82
2022-11-29T07:21:55.275Z,138.02
2022-11-29T07:24:24.696Z,139.77
2022-11-29T07:27:35.376Z,125.00
2022-11-29T07:30:30.103Z,133.40
2022-11-29T07:33:19.527Z,136.90
2022-11-29T07:36:14.077Z,139.07
2022-11-29T07:39:10.372Z,139.50
2022-11-29T07:42:07.222Z,142.80
2022-11-29T07:45:06.570Z,145.88
2022-11-29T07:47:36.135Z,145.73
2022-11-29T07:50:06.040Z,140.02
2022-11-29T07:52:33.702Z,141.48
2022-11-29T07:55:01.347Z,137.80
2022-11-29T07:57:30.569Z,135.32
2022-11-29T07:59:59.514Z,147.02
2022-11-29T08:02:30.966Z,126.85
2022-11-29T08:04:58.254Z,143.32
2022-11-29T08:07:25.482Z,143.52
2022-11-29T08:09:52.221Z,142.88
2022-11-29T08:12:19.036Z,142.35
2022-11-29T08:14:45.924Z,135.15
2022-11-29T08:17:12.835Z,140.38
2022-11-29T08:19:39.481Z,124.65
2022-11-29T08:22:08.665Z,133.13
2022-11-29T08:24:35.495Z,138.00
2022-11-29T08:27:06.793Z,128.02
2022-11-29T08:29:33.643Z,134.55
2022-11-29T08:32:00.427Z,125.25
2022-11-29T08:34:32.032Z,136.73
2022-11-29T08:36:58.694Z,148.30
2022-11-29T08:39:29.829Z,131.75
2022-11-29T08:41:58.668Z,99.20
2022-11-29T08:44:25.544Z,102.00
2022-11-29T08:47:11.029Z,122.90
2022-11-29T08:49:57.685Z,109.53
2022-11-29T08:52:43.169Z,108.03
2022-11-29T08:55:14.707Z,121.85
2022-11-29T08:57:41.547Z,100.30
2022-11-29T09:00:09.201Z,103.03
2022-11-29T09:02:39.364Z,97.47
2022-11-29T09:05:09.785Z,110.38
2022-11-29T09:07:39.568Z,110.25
2022-11-29T09:10:09.438Z,110.75
2022-11-29T09:12:39.835Z,97.78
2022-11-29T09:15:09.662Z,104.88
2022-11-29T09:17:36.462Z,99.90
2022-11-29T09:20:05.227Z,105.85
2022-11-29T09:22:31.914Z,100.82
2022-11-29T09:25:01.216Z,97.65
2022-11-29T09:27:27.942Z,100.28
2022-11-29T09:29:57.100Z,96.20
2022-11-29T09:32:23.950Z,110.53
2022-11-29T09:34:50.706Z,104.00
2022-11-29T09:37:19.861Z,104.53
2022-11-29T09:39:51.286Z,101.72
2022-11-29T09:42:36.010Z,102.50
2022-11-29T09:45:05.042Z,98.88
2022-11-29T09:47:40.533Z,90.22
2022-11-29T09:50:28.959Z,90.07
2022-11-29T09:53:22.111Z,91.35
2022-11-29T09:56:07.433Z,90.53
2022-11-29T09:58:44.728Z,86.07
2022-11-29T10:01:19.356Z,83.22
2022-11-29T10:03:52.332Z,84.90
2022-11-29T10:06:26.865Z,85.93
2022-11-29T10:09:23.255Z,95.57
2022-11-29T10:12:15.503Z,87.45
2022-11-29T10:14:52.533Z,98.40
2022-11-29T10:17:33.014Z,93.82
2022-11-29T10:20:16.893Z,90.60
2022-11-29T15:09:20.642Z,76.55
2022-11-29T15:11:50.386Z,71.53
2022-11-29T15:14:58.996Z,73.88
2022-11-29T15:17:50.470Z,69.75
2022-11-29T15:20:38.534Z,68.03
2022-11-29T15:23:11.710Z,68.88
2022-11-29T15:25:50.808Z,66.05
2022-11-29T15:28:26.642Z,71.43
2022-11-29T15:31:07.391Z,67.65
2022-11-29T15:33:38.919Z,66.63
2022-11-29T15:36:20.241Z,69.53
2022-11-29T15:38:48.590Z,59.47
2022-11-29T15:41:27.299Z,62.63
2022-11-29T15:44:00.227Z,65.25
2022-11-29T15:46:29.300Z,60.90
2022-11-29T15:49:14.825Z,64.80
2022-11-29T15:51:42.186Z,63.50
2022-11-29T15:54:18.487Z,60.92
2022-11-29T15:56:54.667Z,68.07
2022-11-29T15:59:36.264Z,70.85
2022-11-29T16:02:10.200Z,62.13
2022-11-29T16:04:46.443Z,68.45
2022-11-29T16:07:14.842Z,71.72
2022-11-29T16:09:47.072Z,72.38
2022-11-29T16:12:18.309Z,71.10
2022-11-29T16:14:59.741Z,67.13
2022-11-29T16:17:35.280Z,72.75
2022-11-29T16:20:14.196Z,63.72
2022-11-29T16:22:41.001Z,63.65
2022-11-29T16:25:16.726Z,58.95
2022-11-29T16:27:46.554Z,62.70
2022-11-29T16:30:40.784Z,70.88
2022-11-29T16:33:23.218Z,65.97
2022-11-29T16:35:51.474Z,73.72
2022-11-29T16:38:23.519Z,76.03
2022-11-29T16:41:20.753Z,70.05
2022-11-29T16:43:54.019Z,77.97
2022-11-29T16:46:25.680Z,80.57
2022-11-29T16:48:54.299Z,76.07
2022-11-29T16:51:37.522Z,73.07
2022-11-29T16:54:24.983Z,75.45
2022-11-29T16:56:53.543Z,81.47
2022-11-29T16:59:33.331Z,72.50
2022-11-29T17:02:00.125Z,70.18
2022-11-29T17:04:26.916Z,75.75
2022-11-29T17:06:55.790Z,64.88
2022-11-29T17:09:27.202Z,70.57
2022-11-29T17:11:55.577Z,64.78
2022-11-29T17:14:22.509Z,66.05
2022-11-29T17:16:49.706Z,71.00
2022-11-29T17:19:17.342Z,63.80
2022-11-29T17:21:48.679Z,62.17
2022-11-29T17:24:17.770Z,60.70
2022-11-29T17:26:45.488Z,63.25
2022-11-29T17:29:14.122Z,62.45
2022-11-29T17:31:43.611Z,52.70
2022-11-29T17:34:10.741Z,56.13
2022-11-29T17:36:37.867Z,54.50
2022-11-29T17:39:07.929Z,51.65
2022-11-29T17:41:34.731Z,55.47
2022-11-29T17:44:01.905Z,60.10
2022-11-29T17:46:33.940Z,53.15
2022-11-29T17:49:02.357Z,51.40
2022-11-29T17:54:15.861Z,50.85
2022-11-29T17:56:42.782Z,49.83
2022-11-29T17:59:09.562Z,45.33
2022-11-29T18:01:36.944Z,48.35
2022-11-29T18:04:05.687Z,48.92
2022-11-29T18:06:40.461Z,47.85
2022-11-29T18:09:09.416Z,45.13
2022-11-29T18:11:46.828Z,49.00
2022-11-29T18:14:17.202Z,46.10
2022-11-29T18:16:46.988Z,48.25
2022-11-29T18:19:17.419Z,42.38
2022-11-29T18:21:44.606Z,46.17
2022-11-29T18:24:11.681Z,47.90
2022-11-29T18:26:39.049Z,51.75
2022-11-29T18:29:07.412Z,50.60
2022-11-29T18:31:38.838Z,50.58
2022-11-29T18:34:07.221Z,53.78
2022-11-29T18:36:37.267Z,49.75
2022-11-29T18:39:11.425Z,47.63
2022-11-29T18:41:38.347Z,52.95
2022-11-29T18:44:09.848Z,54.33
2022-11-29T18:46:38.290Z,48.90
2022-11-29T18:49:10.749Z,46.80
2022-11-29T18:51:38.937Z,55.50
2022-11-29T18:54:08.697Z,55.40
2022-11-29T18:56:37.045Z,50.90
2022-11-29T18:59:12.467Z,53.58
2022-11-29T19:01:42.917Z,58.72
2022-11-29T19:04:20.621Z,55.67
2022-11-29T19:06:48.368Z,62.45
2022-11-29T19:09:18.847Z,53.50
2022-11-29T19:11:48.205Z,59.78
2022-11-29T19:14:17.405Z,57.88
2022-11-29T19:16:49.416Z,54.65
2022-11-29T19:19:20.332Z,53.65
2022-11-29T19:21:49.223Z,50.78
2022-11-29T19:24:18.098Z,49.80
2022-11-29T19:26:51.292Z,50.08
2022-11-29T19:29:18.011Z,47.90
2022-11-29T19:31:44.840Z,47.70
2022-11-29T19:34:11.746Z,43.70
2022-11-29T19:36:43.386Z,51.97
2022-11-29T19:39:12.889Z,47.65
2022-11-29T19:41:41.580Z,55.35
2022-11-29T19:44:08.555Z,57.20
2022-11-29T19:46:41.508Z,49.05
2022-11-29T19:49:09.739Z,49.28
2022-11-29T19:51:36.841Z,59.40
2022-11-29T19:54:05.880Z,50.92
2022-11-29T19:56:33.478Z,58.85
2022-11-29T19:59:05.827Z,57.90
2022-11-29T20:01:40.404Z,55.03
2022-11-29T20:04:10.064Z,58.97
2022-11-29T20:06:38.407Z,51.03
2022-11-29T20:09:06.163Z,56.38
2022-11-29T20:11:35.047Z,55.55
2022-11-29T20:14:04.141Z,57.03
2022-11-29T20:16:31.541Z,52.05
2022-11-29T20:18:59.167Z,54.33
2022-11-29T20:21:31.309Z,53.33
2022-11-29T20:24:03.592Z,46.80
2022-11-29T20:26:38.349Z,52.50
2022-11-29T20:29:06.850Z,51.40
2022-11-29T20:31:35.494Z,55.22
2022-11-29T20:34:02.967Z,53.85
2022-11-29T20:36:58.150Z,53.90
2022-11-29T20:39:49.793Z,48.13
2022-11-29T20:42:44.608Z,47.20
2022-11-29T20:45:13.583Z,54.67
2022-11-29T20:47:48.713Z,54.33
2022-11-29T20:50:27.618Z,53.20
2022-11-29T20:53:03.259Z,51.67
2022-11-29T20:57:56.597Z,48.63
2022-11-29T21:00:26.114Z,48.78
2022-11-29T21:02:55.663Z,48.65
2022-11-29T21:05:22.561Z,49.03
2022-11-29T21:07:49.754Z,45.67
2022-11-29T21:10:18.176Z,54.67
2022-11-29T21:12:45.875Z,48.53
2022-11-29T21:15:34.271Z,51.58
2022-11-29T21:18:01.419Z,42.75
2022-11-29T21:20:30.889Z,46.63
2022-11-29T21:23:33.023Z,48.95
2022-11-29T21:26:11.407Z,52.45
2022-11-29T21:29:00.383Z,45.30
2022-11-29T21:31:29.882Z,47.05
2022-11-29T21:33:56.909Z,45.92
2022-11-29T21:36:23.698Z,44.03
2022-11-29T21:38:54.839Z,52.53
2022-11-29T21:41:22.271Z,49.90
2022-11-29T21:46:38.383Z,49.50
2022-11-29T21:49:05.382Z,49.63
2022-11-29T21:51:36.975Z,46.08
2022-11-29T21:54:08.445Z,51.67
2022-11-29T21:56:38.250Z,53.30
2022-11-29T21:59:05.763Z,56.22
2022-11-29T22:01:34.961Z,52.03
2022-11-29T22:04:01.861Z,53.05
2022-11-29T22:06:29.354Z,44.90
2022-11-29T22:08:57.000Z,53.38
2022-11-29T22:11:34.250Z,55.20
2022-11-29T22:14:19.182Z,55.88
2022-11-29T22:16:56.669Z,50.63
2022-11-29T22:19:31.765Z,51.42
2022-11-29T22:22:04.246Z,54.83
2022-11-29T22:24:37.836Z,49.33
2022-11-29T22:27:07.095Z,57.95
2022-11-29T22:29:33.762Z,55.65
2022-11-29T22:32:03.098Z,57.05
2022-11-29T22:34:33.169Z,53.35
2022-11-29T22:37:02.306Z,59.25
2022-11-29T22:39:31.137Z,52.67
2022-11-29T22:42:05.120Z,58.33
2022-11-29T22:44:31.934Z,51.47
2022-11-29T22:47:01.082Z,53.35
2022-11-29T22:49:27.793Z,55.85
2022-11-29T22:51:56.997Z,57.88
2022-11-29T22:54:23.647Z,55.60
2022-11-29T22:56:50.397Z,50.00
2022-11-29T22:59:21.802Z,56.03
2022-11-29T23:01:51.005Z,55.20
2022-11-29T23:04:20.946Z,53.22
2022-11-29T23:06:50.213Z,52.17
2022-11-29T23:09:21.637Z,56.20
2022-11-29T23:11:53.598Z,53.33
2022-11-29T23:14:23.464Z,58.78
2022-11-29T23:16:52.982Z,56.97
2022-11-29T23:19:22.790Z,54.38
2022-11-29T23:21:49.538Z,55.90
2022-11-29T23:24:18.731Z,58.42
2022-11-29T23:26:46.720Z,49.05
2022-11-29T23:29:21.184Z,53.83
2022-11-29T23:31:50.640Z,49.20
2022-11-29T23:34:17.393Z,51.10
2022-11-29T23:36:52.403Z,54.97
2022-11-29T23:41:50.734Z,49.60
2022-11-29T23:44:22.025Z,51.63
2022-11-29T23:46:53.249Z,56.25
2022-11-29T23:49:19.883Z,46.40
2022-11-29T23:51:46.505Z,54.47
2022-11-29T23:54:15.616Z,56.72
2022-11-29T23:56:44.595Z,49.42
2022-11-29T23:59:14.385Z,57.00
